createdAt,value
2018-07-24T00:02:13.165Z,21.90
2018-07-24T00:04:41.561Z,21.90
2018-07-24T00:07:09.877Z,21.90
2018-07-24T00:09:38.186Z,21.90
2018-07-24T00:12:06.501Z,21.90
2018-07-24T00:14:34.803Z,21.90
2018-07-24T00:17:03.115Z,21.90
2018-07-24T00:19:31.487Z,21.90
2018-07-24T00:21:59.880Z,21.80
2018-07-24T00:24:28.213Z,21.90
2018-07-24T00:26:56.562Z,21.80
2018-07-24T00:29:24.914Z,21.80
2018-07-24T00:31:53.189Z,21.70
2018-07-24T00:34:21.469Z,21.70
2018-07-24T00:36:49.790Z,21.60
2018-07-24T00:39:18.093Z,21.60
2018-07-24T00:41:46.397Z,21.60
2018-07-24T00:44:14.759Z,21.50
2018-07-24T00:46:43.042Z,21.60
2018-07-24T00:49:11.363Z,21.70
2018-07-24T00:51:40.348Z,21.70
2018-07-24T00:54:08.760Z,21.70
2018-07-24T00:56:37.421Z,21.60
2018-07-24T00:59:05.851Z,21.60
2018-07-24T01:01:34.157Z,21.50
2018-07-24T01:04:02.514Z,21.50
2018-07-24T01:06:30.859Z,21.50
2018-07-24T01:08:59.238Z,21.50
2018-07-24T01:11:27.565Z,21.50
2018-07-24T01:13:55.928Z,21.40
2018-07-24T01:16:24.311Z,21.40
2018-07-24T01:18:52.731Z,21.40
2018-07-24T01:21:21.333Z,21.50
2018-07-24T01:23:49.695Z,21.40
2018-07-24T01:26:18.142Z,21.40
2018-07-24T01:28:46.493Z,21.40
2018-07-24T01:31:14.860Z,21.40
2018-07-24T01:33:43.261Z,21.40
2018-07-24T01:36:11.561Z,21.40
2018-07-24T01:38:39.889Z,21.40
2018-07-24T01:41:09.706Z,21.40
2018-07-24T01:43:38.086Z,21.40
2018-07-24T01:46:06.466Z,21.40
2018-07-24T01:48:34.834Z,21.40
2018-07-24T01:51:03.587Z,21.40
2018-07-24T01:53:31.887Z,21.30
2018-07-24T01:56:00.214Z,21.40
2018-07-24T01:58:28.602Z,21.40
2018-07-24T02:03:29.421Z,21.40
2018-07-24T02:05:57.786Z,21.40
2018-07-24T02:08:26.102Z,21.40
2018-07-24T02:10:54.439Z,21.30
2018-07-24T02:13:22.823Z,21.20
2018-07-24T02:15:51.150Z,21.20
2018-07-24T02:18:19.474Z,21.10
2018-07-24T02:20:47.874Z,21.10
2018-07-24T02:23:16.209Z,21.10
2018-07-24T02:25:44.994Z,21.10
2018-07-24T02:30:41.498Z,21.10
2018-07-24T02:33:09.911Z,21.00
2018-07-24T02:35:38.284Z,21.10
2018-07-24T02:38:06.675Z,21.10
2018-07-24T02:40:35.007Z,21.20
2018-07-24T02:43:03.391Z,21.20
2018-07-24T02:45:31.742Z,21.20
2018-07-24T02:48:00.091Z,21.60
2018-07-24T02:50:28.440Z,21.00
2018-07-24T02:52:56.840Z,21.00
2018-07-24T02:55:25.194Z,21.00
2018-07-24T02:57:53.595Z,20.90
2018-07-24T03:00:21.963Z,20.90
2018-07-24T03:02:50.573Z,20.90
2018-07-24T03:05:18.956Z,20.90
2018-07-24T03:07:47.318Z,20.80
2018-07-24T03:10:15.926Z,20.80
2018-07-24T03:12:44.246Z,20.80
2018-07-24T03:15:12.594Z,20.80
2018-07-24T03:17:40.946Z,20.80
2018-07-24T03:20:09.275Z,20.80
2018-07-24T03:22:37.667Z,20.70
2018-07-24T03:25:06.058Z,20.80
2018-07-24T03:27:34.382Z,20.80
2018-07-24T03:30:02.744Z,20.80
2018-07-24T03:32:31.070Z,20.80
2018-07-24T03:34:59.395Z,20.80
2018-07-24T03:37:27.825Z,20.80
2018-07-24T03:39:57.678Z,20.80
2018-07-24T03:42:26.049Z,20.80
2018-07-24T03:44:54.447Z,20.80
2018-07-24T03:47:22.767Z,20.80
2018-07-24T03:49:51.202Z,20.80
2018-07-24T03:54:47.650Z,20.80
2018-07-24T03:57:16.234Z,20.80
2018-07-24T03:59:44.558Z,20.80
2018-07-24T04:02:12.938Z,20.80
2018-07-24T04:04:41.299Z,20.80
2018-07-24T04:07:09.771Z,20.80
2018-07-24T04:09:38.159Z,20.70
2018-07-24T04:12:06.534Z,20.70
2018-07-24T04:14:34.913Z,20.80
2018-07-24T04:17:03.474Z,20.80
2018-07-24T04:19:31.937Z,20.80
2018-07-24T04:22:00.310Z,20.80
2018-07-24T04:24:28.931Z,20.80
2018-07-24T04:26:57.309Z,20.80
2018-07-24T04:29:25.655Z,20.80
2018-07-24T04:31:54.006Z,20.90
2018-07-24T04:34:22.394Z,20.90
2018-07-24T04:36:50.741Z,20.80
2018-07-24T04:39:19.171Z,20.90
2018-07-24T04:41:47.526Z,20.90
2018-07-24T04:44:15.880Z,20.90
2018-07-24T04:46:44.694Z,20.90
2018-07-24T04:49:13.190Z,21.00
2018-07-24T04:51:41.498Z,20.90
2018-07-24T04:54:09.950Z,21.00
2018-07-24T04:56:38.385Z,21.00
2018-07-24T04:59:06.732Z,21.10
2018-07-24T05:01:35.061Z,21.10
2018-07-24T05:04:03.768Z,21.20
2018-07-24T05:06:32.141Z,21.20
2018-07-24T05:09:00.550Z,21.30
2018-07-24T05:11:28.880Z,20.60
2018-07-24T05:13:58.136Z,21.50
2018-07-24T05:16:26.458Z,21.50
2018-07-24T05:18:54.820Z,21.60
2018-07-24T05:23:51.279Z,21.70
2018-07-24T05:26:19.619Z,21.70
2018-07-24T05:31:16.064Z,21.80
2018-07-24T05:33:44.519Z,21.90
2018-07-24T05:36:12.833Z,21.90
2018-07-24T05:38:44.242Z,22.00
2018-07-24T05:41:12.576Z,22.10
2018-07-24T05:43:41.042Z,22.20
2018-07-24T05:48:37.688Z,22.30
2018-07-24T05:51:06.243Z,22.30
2018-07-24T05:53:34.600Z,22.40
2018-07-24T05:56:03.022Z,22.50
2018-07-24T05:58:32.090Z,22.50
2018-07-24T06:01:00.462Z,22.60
2018-07-24T06:03:28.886Z,22.60
2018-07-24T06:05:57.343Z,22.70
2018-07-24T06:08:25.670Z,22.80
2018-07-24T06:13:22.083Z,22.90
2018-07-24T06:15:50.472Z,22.90
2018-07-24T06:18:18.838Z,23.00
2018-07-24T06:20:47.191Z,23.10
2018-07-24T06:23:15.539Z,23.10
2018-07-24T06:25:43.966Z,23.30
2018-07-24T06:28:12.323Z,23.40
2018-07-24T06:30:40.695Z,23.40
2018-07-24T06:33:09.019Z,23.50
2018-07-24T06:35:37.409Z,23.60
2018-07-24T06:38:05.750Z,23.60
2018-07-24T06:40:34.427Z,23.70
2018-07-24T06:43:02.794Z,23.80
2018-07-24T06:45:31.126Z,23.80
2018-07-24T06:47:59.453Z,23.90
2018-07-24T06:50:27.843Z,23.90
2018-07-24T06:52:56.167Z,24.00
2018-07-24T06:55:24.458Z,24.00
2018-07-24T06:57:53.208Z,24.10
2018-07-24T07:00:21.535Z,24.20
2018-07-24T07:02:49.914Z,24.30
2018-07-24T07:05:18.323Z,24.30
2018-07-24T07:07:46.739Z,24.30
2018-07-24T07:10:15.168Z,24.30
2018-07-24T07:15:11.942Z,24.30
2018-07-24T07:17:40.286Z,24.40
2018-07-24T07:20:08.775Z,24.50
2018-07-24T07:22:37.172Z,24.60
2018-07-24T07:25:05.525Z,24.60
2018-07-24T07:27:33.904Z,24.70
2018-07-24T07:30:02.383Z,24.80
2018-07-24T07:32:32.506Z,24.80
2018-07-24T07:35:00.847Z,24.90
2018-07-24T07:37:29.851Z,25.00
2018-07-24T07:39:58.222Z,25.10
2018-07-24T07:42:26.551Z,25.10
2018-07-24T07:44:54.927Z,25.20
2018-07-24T07:47:23.247Z,25.40
2018-07-24T07:49:51.578Z,25.50
2018-07-24T07:52:19.956Z,25.70
2018-07-24T07:54:48.332Z,25.80
2018-07-24T07:57:17.711Z,25.90
2018-07-24T07:59:46.085Z,25.90
2018-07-24T08:02:14.410Z,26.00
2018-07-24T08:04:42.747Z,26.20
2018-07-24T08:07:11.116Z,26.30
2018-07-24T08:09:39.508Z,26.40
2018-07-24T08:12:07.828Z,26.60
2018-07-24T08:14:36.144Z,26.60
2018-07-24T08:17:04.450Z,26.70
2018-07-24T08:19:32.826Z,26.70
2018-07-24T08:22:01.233Z,26.80
2018-07-24T08:24:29.579Z,26.90
2018-07-24T08:26:57.966Z,27.00
2018-07-24T08:29:26.582Z,26.80
2018-07-24T08:31:55.024Z,26.80
2018-07-24T08:34:24.053Z,26.90
2018-07-24T08:36:52.642Z,26.80
2018-07-24T08:39:21.031Z,26.90
2018-07-24T08:41:49.381Z,27.00
2018-07-24T08:44:17.705Z,27.00
2018-07-24T08:46:46.111Z,27.10
2018-07-24T08:49:14.599Z,27.10
2018-07-24T08:51:42.906Z,27.20
2018-07-24T08:54:11.406Z,27.20
2018-07-24T08:56:39.643Z,27.50
2018-07-24T08:59:08.010Z,27.60
2018-07-24T09:01:36.363Z,27.60
2018-07-24T09:04:04.832Z,27.80
2018-07-24T09:09:01.944Z,28.10
2018-07-24T09:16:26.845Z,28.00
2018-07-24T09:18:55.171Z,28.10
2018-07-24T09:21:23.572Z,28.20
2018-07-24T09:23:51.974Z,28.40
2018-07-24T09:26:20.357Z,28.50
2018-07-24T09:28:48.907Z,28.40
2018-07-24T09:31:17.198Z,28.20
2018-07-24T09:33:45.669Z,28.20
2018-07-24T09:36:13.994Z,28.40
2018-07-24T09:38:42.498Z,28.30
2018-07-24T09:41:10.818Z,28.30
2018-07-24T09:43:39.162Z,28.20
2018-07-24T09:46:07.702Z,28.30
2018-07-24T09:48:36.098Z,28.40
2018-07-24T09:51:04.702Z,28.40
2018-07-24T09:53:33.075Z,28.70
2018-07-24T09:56:01.480Z,28.80
2018-07-24T09:58:29.882Z,28.80
2018-07-24T10:01:03.685Z,28.90
2018-07-24T10:03:32.210Z,28.70
2018-07-24T10:06:00.499Z,28.60
2018-07-24T10:08:28.805Z,28.40
2018-07-24T10:10:57.173Z,28.50
2018-07-24T10:13:25.716Z,28.70
2018-07-24T10:15:53.946Z,28.70
2018-07-24T10:20:50.408Z,28.80
2018-07-24T10:23:18.763Z,28.60
2018-07-24T10:25:47.134Z,28.50
2018-07-24T10:28:15.601Z,28.60
2018-07-24T10:33:12.835Z,28.60
2018-07-24T10:35:41.470Z,28.60
2018-07-24T10:38:09.915Z,28.60
2018-07-24T10:40:38.324Z,28.70
2018-07-24T10:43:06.726Z,28.70
2018-07-24T10:45:35.034Z,28.70
2018-07-24T10:48:03.418Z,28.80
2018-07-24T10:50:31.798Z,28.90
2018-07-24T10:53:00.467Z,29.00
2018-07-24T10:55:28.871Z,29.10
2018-07-24T10:57:57.251Z,29.10
2018-07-24T11:00:25.640Z,29.10
2018-07-24T11:02:53.941Z,29.20
2018-07-24T11:05:22.312Z,29.20
2018-07-24T11:07:50.620Z,29.50
2018-07-24T11:10:19.015Z,29.30
2018-07-24T11:12:47.418Z,29.40
2018-07-24T11:15:15.772Z,29.70
2018-07-24T11:17:44.206Z,29.70
2018-07-24T11:20:12.559Z,29.70
2018-07-24T11:22:41.167Z,29.70
2018-07-24T11:25:09.480Z,29.70
2018-07-24T11:27:38.037Z,29.70
2018-07-24T11:32:34.850Z,30.00
2018-07-24T11:35:03.234Z,30.10
2018-07-24T11:37:31.630Z,30.30
2018-07-24T11:40:00.014Z,30.50
2018-07-24T11:42:28.477Z,30.40
2018-07-24T11:44:56.862Z,30.80
2018-07-24T11:47:25.218Z,30.70
2018-07-24T11:49:53.577Z,30.60
2018-07-24T11:52:21.946Z,30.70
2018-07-24T11:54:50.262Z,30.90
2018-07-24T11:57:18.694Z,30.90
2018-07-24T11:59:46.999Z,30.70
2018-07-24T12:02:15.318Z,31.00
2018-07-24T12:04:43.664Z,31.00
2018-07-24T12:07:12.634Z,30.90
2018-07-24T12:09:41.055Z,30.90
2018-07-24T12:12:09.453Z,31.20
2018-07-24T12:14:37.937Z,31.40
2018-07-24T12:17:06.455Z,31.30
2018-07-24T12:19:34.843Z,31.10
2018-07-24T12:22:03.320Z,31.10
2018-07-24T12:24:31.753Z,31.00
2018-07-24T12:27:00.144Z,30.70
2018-07-24T12:29:28.627Z,30.90
2018-07-24T12:31:56.978Z,30.90
2018-07-24T12:34:25.385Z,30.90
2018-07-24T12:39:22.010Z,31.30
2018-07-24T12:41:50.416Z,31.40
2018-07-24T12:44:18.776Z,31.20
2018-07-24T12:46:47.148Z,31.70
2018-07-24T12:49:15.549Z,31.90
2018-07-24T12:51:44.161Z,31.80
2018-07-24T12:54:12.476Z,31.70
2018-07-24T12:56:40.818Z,31.50
2018-07-24T12:59:09.452Z,31.60
2018-07-24T13:01:37.799Z,31.70
2018-07-24T13:04:06.148Z,32.00
2018-07-24T13:06:34.442Z,31.80
2018-07-24T13:09:02.875Z,31.70
2018-07-24T13:11:31.232Z,31.80
2018-07-24T13:14:00.472Z,32.00
2018-07-24T13:16:28.866Z,32.10
2018-07-24T13:18:57.162Z,31.90
2018-07-24T13:21:25.606Z,32.10
2018-07-24T13:23:54.058Z,32.10
2018-07-24T13:26:22.375Z,31.90
2018-07-24T13:28:50.722Z,31.90
2018-07-24T13:31:19.026Z,31.70
2018-07-24T13:33:47.682Z,31.60
2018-07-24T13:36:16.104Z,31.60
2018-07-24T13:38:44.517Z,31.80
2018-07-24T13:41:12.886Z,31.80
2018-07-24T13:43:41.237Z,31.90
2018-07-24T13:46:09.592Z,32.40
2018-07-24T13:48:37.866Z,32.10
2018-07-24T13:51:06.264Z,32.00
2018-07-24T13:53:34.612Z,32.20
2018-07-24T13:56:02.987Z,32.10
2018-07-24T13:58:31.382Z,32.10
2018-07-24T14:00:59.753Z,32.50
2018-07-24T14:03:28.087Z,32.50
2018-07-24T14:05:56.410Z,32.40
2018-07-24T14:08:24.817Z,32.80
2018-07-24T14:10:53.072Z,32.60
2018-07-24T14:13:21.379Z,32.60
2018-07-24T14:18:17.814Z,32.50
2018-07-24T14:20:46.186Z,32.60
2018-07-24T14:23:14.529Z,32.90
2018-07-24T14:25:43.399Z,32.90
2018-07-24T14:28:11.787Z,33.00
2018-07-24T14:30:40.118Z,32.90
2018-07-24T14:33:08.618Z,32.60
2018-07-24T14:35:37.579Z,32.60
2018-07-24T14:38:05.976Z,33.00
2018-07-24T14:40:34.434Z,33.00
2018-07-24T14:43:02.741Z,32.50
2018-07-24T14:45:31.100Z,32.40
2018-07-24T14:47:59.558Z,32.30
2018-07-24T14:50:27.927Z,32.70
2018-07-24T14:52:56.303Z,33.00
2018-07-24T14:55:24.661Z,32.70
2018-07-24T14:57:53.040Z,32.50
2018-07-24T15:00:21.407Z,32.50
2018-07-24T15:02:49.703Z,32.50
2018-07-24T15:05:18.075Z,33.00
2018-07-24T15:07:46.418Z,33.30
2018-07-24T15:10:14.852Z,33.10
2018-07-24T15:12:43.205Z,33.40
2018-07-24T15:15:11.510Z,33.50
2018-07-24T15:17:41.048Z,33.30
2018-07-24T15:20:09.647Z,33.20
2018-07-24T15:25:06.230Z,33.30
2018-07-24T15:27:34.574Z,33.50
2018-07-24T15:30:02.980Z,33.50
2018-07-24T15:32:31.393Z,33.60
2018-07-24T15:34:59.884Z,33.80
2018-07-24T15:37:28.912Z,33.80
2018-07-24T15:39:57.248Z,33.80
2018-07-24T15:42:25.618Z,33.60
2018-07-24T15:44:53.982Z,33.70
2018-07-24T15:47:22.901Z,34.10
2018-07-24T15:49:51.446Z,34.10
2018-07-24T15:52:19.824Z,34.30
2018-07-24T15:54:48.163Z,34.70
2018-07-24T15:57:16.810Z,35.00
2018-07-24T15:59:45.581Z,35.60
2018-07-24T16:02:14.015Z,36.30
2018-07-24T16:07:10.632Z,38.10
2018-07-24T16:09:43.693Z,38.40
2018-07-24T16:12:12.017Z,39.20
2018-07-24T16:14:40.385Z,38.90
2018-07-24T16:17:09.155Z,39.30
2018-07-24T16:19:38.611Z,40.00
2018-07-24T16:22:07.134Z,39.60
2018-07-24T16:24:35.576Z,39.60
2018-07-24T16:27:04.081Z,38.90
2018-07-24T16:29:39.255Z,39.30
2018-07-24T16:32:07.677Z,39.50
2018-07-24T16:34:36.031Z,39.60
2018-07-24T16:37:04.587Z,39.30
2018-07-24T16:39:33.006Z,39.10
2018-07-24T16:42:02.044Z,39.10
2018-07-24T16:44:30.725Z,39.00
2018-07-24T16:49:27.510Z,38.70
2018-07-24T16:51:55.882Z,39.20
2018-07-24T16:54:24.304Z,39.20
2018-07-24T16:56:55.390Z,39.00
2018-07-24T16:59:38.538Z,38.60
2018-07-24T17:02:07.198Z,38.40
2018-07-24T17:04:35.506Z,38.10
2018-07-24T17:07:03.957Z,38.10
2018-07-24T17:09:32.359Z,37.90
2018-07-24T17:12:00.746Z,37.10
2018-07-24T17:14:32.447Z,36.60
2018-07-24T17:17:01.088Z,36.40
2018-07-24T17:19:29.450Z,36.10
2018-07-24T17:21:57.847Z,36.10
2018-07-24T17:24:26.558Z,36.00
2018-07-24T17:26:54.953Z,34.60
2018-07-24T17:29:23.306Z,34.40
2018-07-24T17:31:51.741Z,34.10
2018-07-24T17:34:20.188Z,33.90
2018-07-24T17:36:48.554Z,33.60
2018-07-24T17:39:17.082Z,33.00
2018-07-24T17:41:45.523Z,32.40
2018-07-24T17:44:13.881Z,32.00
2018-07-24T17:46:42.278Z,31.70
2018-07-24T17:49:10.700Z,31.50
2018-07-24T17:51:39.360Z,31.30
2018-07-24T17:54:07.715Z,30.90
2018-07-24T17:56:39.051Z,30.70
2018-07-24T17:59:07.413Z,30.40
2018-07-24T18:01:35.802Z,30.20
2018-07-24T18:04:04.253Z,30.10
2018-07-24T18:09:00.888Z,29.90
2018-07-24T18:11:29.328Z,29.90
2018-07-24T18:16:26.175Z,29.80
2018-07-24T18:21:22.674Z,29.70
2018-07-24T18:23:51.564Z,29.40
2018-07-24T18:26:19.988Z,29.30
2018-07-24T18:28:48.616Z,29.10
2018-07-24T18:31:17.125Z,28.90
2018-07-24T18:33:45.607Z,28.90
2018-07-24T18:36:14.274Z,28.60
2018-07-24T18:38:42.700Z,28.60
2018-07-24T18:41:11.035Z,28.60
2018-07-24T18:43:39.469Z,28.60
2018-07-24T18:48:42.617Z,28.50
2018-07-24T18:51:12.202Z,28.40
2018-07-24T18:53:40.754Z,28.40
2018-07-24T18:56:09.130Z,28.30
2018-07-24T19:01:43.248Z,28.10
2018-07-24T19:04:11.829Z,27.90
2018-07-24T19:06:40.966Z,27.80
2018-07-24T19:09:13.505Z,27.70
2018-07-24T19:11:41.965Z,27.70
2018-07-24T19:14:10.347Z,27.50
2018-07-24T19:16:38.915Z,27.50
2018-07-24T19:19:07.265Z,27.40
2018-07-24T19:21:35.809Z,27.40
2018-07-24T19:24:04.488Z,27.30
2018-07-24T19:26:32.866Z,27.30
2018-07-24T19:29:02.141Z,27.10
2018-07-24T19:31:30.972Z,27.00
2018-07-24T19:34:00.606Z,26.90
2018-07-24T19:36:29.725Z,26.80
2018-07-24T19:38:59.886Z,26.70
2018-07-24T19:41:29.281Z,26.60
2018-07-24T19:43:59.003Z,26.50
2018-07-24T19:46:28.330Z,26.40
2018-07-24T19:51:25.560Z,26.20
2018-07-24T19:53:57.080Z,26.10
2018-07-24T19:56:26.661Z,26.00
2018-07-24T20:01:26.527Z,25.90
2018-07-24T20:03:56.375Z,25.80
2018-07-24T20:06:28.132Z,25.70
2018-07-24T20:08:59.825Z,25.60
2018-07-24T20:11:29.250Z,25.50
2018-07-24T20:14:01.416Z,25.50
2018-07-24T20:16:35.620Z,25.50
2018-07-24T20:19:04.508Z,25.40
2018-07-24T20:21:32.935Z,25.40
2018-07-24T20:24:01.443Z,25.40
2018-07-24T20:26:29.852Z,25.40
2018-07-24T20:28:58.248Z,25.30
2018-07-24T20:31:26.657Z,25.30
2018-07-24T20:33:59.363Z,25.30
2018-07-24T20:36:28.022Z,25.20
2018-07-24T20:38:56.354Z,25.10
2018-07-24T20:41:24.874Z,25.00
2018-07-24T20:43:53.342Z,24.90
2018-07-24T20:46:21.879Z,24.90
2018-07-24T20:48:50.250Z,24.80
2018-07-24T20:51:18.640Z,24.80
2018-07-24T20:56:15.268Z,24.70
2018-07-24T20:58:43.757Z,24.70
2018-07-24T21:01:12.124Z,24.60
2018-07-24T21:06:07.224Z,24.60
2018-07-24T21:08:35.569Z,24.50
2018-07-24T21:13:32.274Z,24.40
2018-07-24T21:16:00.858Z,24.40
2018-07-24T21:18:29.970Z,24.40
2018-07-24T21:20:58.340Z,24.40
2018-07-24T21:30:52.200Z,24.30
2018-07-24T21:33:20.574Z,24.20
2018-07-24T21:35:48.942Z,24.20
2018-07-24T21:38:17.236Z,24.20
2018-07-24T21:40:45.566Z,24.20
2018-07-24T21:43:14.100Z,24.10
2018-07-24T21:45:42.399Z,24.20
2018-07-24T21:50:39.263Z,24.20
2018-07-24T21:53:07.850Z,24.20
2018-07-24T21:55:36.192Z,24.20
2018-07-24T21:58:04.460Z,24.20
2018-07-24T22:00:37.439Z,24.20
2018-07-24T22:03:08.683Z,24.20
2018-07-24T22:05:37.427Z,24.20
2018-07-24T22:08:05.736Z,24.20
2018-07-24T22:10:34.047Z,24.20
2018-07-24T22:13:02.365Z,24.20
2018-07-24T22:15:30.686Z,24.20
2018-07-24T22:17:59.026Z,24.10
2018-07-24T22:20:27.343Z,24.10
2018-07-24T22:22:55.724Z,24.10
2018-07-24T22:25:24.125Z,24.00
2018-07-24T22:27:52.586Z,24.00
2018-07-24T22:30:20.919Z,24.00
2018-07-24T22:32:49.210Z,23.90
2018-07-24T22:35:17.573Z,23.90
2018-07-24T22:37:45.905Z,23.90
2018-07-24T22:40:14.270Z,23.90
2018-07-24T22:42:42.627Z,23.80
2018-07-24T22:45:10.948Z,23.80
2018-07-24T22:50:07.452Z,23.70
2018-07-24T22:52:35.851Z,23.70
2018-07-24T22:55:04.173Z,23.60
2018-07-24T22:57:32.486Z,23.60
2018-07-24T23:00:00.814Z,23.60
2018-07-24T23:02:29.210Z,23.50
2018-07-24T23:04:57.571Z,23.50
2018-07-24T23:07:25.952Z,23.40
2018-07-24T23:09:54.285Z,23.40
2018-07-24T23:12:22.626Z,23.30
2018-07-24T23:14:50.918Z,23.40
2018-07-24T23:17:19.337Z,23.30
2018-07-24T23:19:47.652Z,23.40
2018-07-24T23:22:15.959Z,23.40
2018-07-24T23:24:44.620Z,23.40
2018-07-24T23:27:12.915Z,23.40
2018-07-24T23:29:41.305Z,23.40
2018-07-24T23:32:09.729Z,23.30
2018-07-24T23:34:38.050Z,23.40
2018-07-24T23:37:06.431Z,23.30
2018-07-24T23:39:34.810Z,23.30
2018-07-24T23:42:03.114Z,23.20
2018-07-24T23:44:31.443Z,23.20
2018-07-24T23:46:59.742Z,23.20
2018-07-24T23:49:28.383Z,23.10
2018-07-24T23:51:56.782Z,23.10
2018-07-24T23:54:25.134Z,23.00
2018-07-24T23:56:53.547Z,23.00
